RJFTRJFS

Guest
Details From RJFT - KUMAMOTO
To RJFS - SAGA
Flight Number -
Tags generated
Created
Modified
Stats Distance 34 nm / 62 km
Max Altitude 1,900 ft / 579 m
Waypoints 3
Social Downloads 0
Likes 0
Share VATSIM

Download

Looking for another format? Having issues loading an existing format? Contact us
Advertisement - Login to hide

Notes

Basic altitude profile: - Ascent Rate: 2500ft/min - Ascent Speed: 250kts - Cruise Altitude: 35000ft - Cruise Speed: 420kts - Descent Rate: 1500ft/min - Descent Speed: 250kts Options: - Use NATs: yes - Use PACOTS: yes - Use low airways: yes - Use high airways: yes

Route

RJFT OMUTA RJFS

ID Type Via Altitude Latitude Longitude Leg Dist Tot Dist Heading (true) Name
O RJFT APT - 0 ft / 0 m 32.83732˚ 130.85505˚ - 0 nm - KUMAMOTO
OMUTA FIX - 1,900 ft / 579 m 33.05894˚ 130.45039˚ 24 nm 24 nm 303° / 303° -
O RJFS APT - 0 ft / 0 m 33.14972˚ 130.30222˚ 9 nm 33 nm 306° / 306° SAGA

Altitude Profile

Advertisement - Login to hide

RJFT

Details ICAO RJFT (KMJ)
Name KUMAMOTO
Region Japan
Timezone Asia/Tokyo (UTC+9.0)
Stats Elevation 642 ft / 196 m (AMSL)
Location 32.837318° 130.855052°
Runways 1
Magnetic Variation 7.225° W

METAR

RJFT 120000Z 27005KT 240V330 9999 FEW030 SCT040 BKN050 02/M05 Q1025

Decode

TAF

TAF RJFT 112308Z 1200/1306 31010KT 9999 FEW030 SCT050 BECMG 1210/1212 05004KT BECMG 1300/1303 30006KT

Decode

Departure Runways

ID Width Length Bearing (true) Bearing (mag) Surface Threshold Offset Overrun Length
07 150 ft / 46 m 9,833 ft / 2,997 m 64.47° 71.69° Asphalt 0 ft / 0 m 200 ft / 61 m
25 150 ft / 46 m 9,833 ft / 2,997 m 244.49° 251.71° Asphalt 0 ft / 0 m 200 ft / 61 m

RJFS

Details ICAO RJFS (HSG)
Name SAGA
Region Japan
Timezone Asia/Tokyo (UTC+9.0)
Stats Elevation 5 ft / 2 m (AMSL)
Location 33.149718° 130.302221°
Runways 1
Magnetic Variation 7.313° W

METAR

RJFS 120000Z 31008KT 9999 VCSH FEW030 BKN035 BKN050 04/M01 Q1027

Decode

TAF

TAF RJFS 112307Z 1200/1306 34011KT 9999 FEW030

Decode

Destination Runways

ID Width Length Bearing (true) Bearing (mag) Surface Threshold Offset Overrun Length
11 148 ft / 45 m 6,550 ft / 1,997 m 99.29° 106.60° Asphalt 0 ft / 0 m 200 ft / 61 m
29 148 ft / 45 m 6,550 ft / 1,997 m 279.30° 286.61° Asphalt 0 ft / 0 m 200 ft / 61 m

Approach Navaids

Runway Type Ident Frequency Range Bearing (true) Bearing (mag) Slope Elevation
29 Localiser ISG 110.15 MHz 18 nm / 33 km 279.29° 286.60° - 6 ft / 2 m (AMSL)
29 Glidescope ISG 110.15 MHz 10 nm / 19 km 279.29° 286.60° 3.00° 23 ft / 7 m (AMSL)
29 DME ISG 110.15 MHz 18 nm / 33 km - - - 23 ft / 7 m (AMSL)